Weather reports worldwide

Advertisment
Bourg-St-Maurice, France (7497): temperature & dewpoint: 06.11.2019 17:00:00 - 12.11.2019 17:00:00 (CET)Bourg-St-Maurice, France (7497): temperature -20cm & temperature -100cm: 06.11.2019 17:00:00 - 12.11.2019 17:00:00 (CET)Bourg-St-Maurice, France (7497): wind speed & gusts: 06.11.2019 17:00:00 - 12.11.2019 17:00:00 (CET)Bourg-St-Maurice, France (7497): wind direction: 06.11.2019 17:00:00 - 12.11.2019 17:00:00 (CET)Bourg-St-Maurice, France (7497): sunshine duration: 06.11.2019 17:00:00 - 12.11.2019 17:00:00 (CET)Bourg-St-Maurice, France (7497): precipitation: 06.11.2019 17:00:00 - 12.11.2019 17:00:00 (CET)
Date & Time tt [°C] td [°C] tt -20cm [°C] tt -100cm [°C] ff [km/h] ff [kn] fx [km/h] fx [kn] dd sd [min] rr [mm]
12.11.2019 17:00:00 3,8 -4,2 7,6 12,0 3 2 11 6 NW 0 0,0
12.11.2019 16:00:00 5,8 -4,1 7,4 12,0 7 4 16 8 NW 60 0,0
12.11.2019 15:00:00 8,4 -3,5 7,1 11,9 4 2 13 7 NW 60 0,0
12.11.2019 14:00:00 9,6 -4,0 6,8 12,0 7 4 16 8 ENE 60 0,0
12.11.2019 13:00:00 9,6 -3,4 6,5 12,0 5 3 10 6 SSE 60 0,0
12.11.2019 12:00:00 7,0 -1,7 6,3 12,0 4 2 16 9 NNE 60 0,0
12.11.2019 11:00:00 6,6 0,5 6,2 12,0 5 3 9 5 ESE 36 0,0
12.11.2019 10:00:00 2,9 1,1 6,2 12,0 2 1 10 5 SW 0 0,0
12.11.2019 09:00:00 2,2 1,3 6,2 12,0 3 2 8 4 S 0 0,0
12.11.2019 08:00:00 1,9 1,2 6,2 12,0 5 3 9 5 SW 0 0,0
12.11.2019 07:00:00 2,1 1,1 6,2 12,0 5 3 11 6 SSW 0 0,0
12.11.2019 06:00:00 2,1 1,1 6,3 12,1 4 2 9 5 SSW 0 0,0
12.11.2019 05:00:00 2,0 1,1 6,2 12,1 4 2 7 4 SW 0 0,0
12.11.2019 04:00:00 2,0 0,8 6,3 12,1 0 0 6 3 N 0 0,0
12.11.2019 03:00:00 1,9 0,7 6,3 12,1 3 1 9 5 SE 0 0,0
12.11.2019 02:00:00 1,7 0,7 6,4 12,1 3 1 5 3 SSW 0 0,0
12.11.2019 01:00:00 1,7 0,5 6,4 12,2 0 0 5 3 N 0 0,0
12.11.2019 00:00:00 1,8 0,5 6,4 12,2 0 0 4 2 N 0 0,0
11.11.2019 23:00:00 2,1 0,8 6,5 12,2 3 1 5 3 WNW 0 0,0
11.11.2019 22:00:00 1,7 0,2 6,6 12,2 3 1 5 3 W 0 0,0
11.11.2019 21:00:00 2,4 0,3 6,6 12,2 4 2 6 3 NW 0 0,0
11.11.2019 20:00:00 3,4 0,6 6,5 12,2 3 1 9 5 S 0 0,0
11.11.2019 19:00:00 4,0 0,5 6,5 12,3 4 2 7 4 NE 0 0,0
11.11.2019 18:00:00 4,3 0,1 6,4 12,3 2 1 8 4 SSW 0 0,0
11.11.2019 17:00:00 4,9 -0,3 6,4 12,3 2 1 7 4 SW 0 0,0
11.11.2019 16:00:00 5,5 -0,4 6,2 12,3 5 3 18 10 WSW 0 0,0
11.11.2019 15:00:00 6,6 -0,2 6,0 12,3 9 5 19 10 SSW 0 0,0
11.11.2019 14:00:00 7,8 0,5 5,8 12,3 8 4 15 8 S 0 0,0
11.11.2019 13:00:00 6,6 -0,6 5,6 12,3 2 1 9 5 E 0 0,0
11.11.2019 12:00:00 5,4 0,0 5,5 12,3 0 0 12 6 N 7 0,0
11.11.2019 11:00:00 3,4 -0,8 5,5 12,3 4 2 17 9 SSW 18 0,0
11.11.2019 10:00:00 1,9 -0,8 5,5 12,4 5 3 10 5 SSE 28 0,0
11.11.2019 09:00:00 -0,5 -1,5 5,6 12,4 5 3 10 5 NNW 0 0,0
11.11.2019 08:00:00 -1,5 -2,3 5,7 12,4 5 3 9 5 WNW 0 0,0
11.11.2019 07:00:00 -1,5 -2,5 5,8 12,4 6 3 10 5 SSW 0 0,0
11.11.2019 06:00:00 -2,0 -2,7 6,0 12,4 4 2 6 4 NW 0 0,0
11.11.2019 05:00:00 -2,2 -2,9 6,1 12,4 4 2 8 4 NNW 0 0,0
11.11.2019 04:00:00 -2,3 -3,1 6,2 12,4 0 0 8 5 N 0 0,0
11.11.2019 03:00:00 -2,0 -2,8 6,4 12,5 4 2 9 5 S 0 0,0
11.11.2019 02:00:00 -1,7 -2,7 6,5 12,5 2 1 6 4 NNW 0 0,0
11.11.2019 01:00:00 -1,4 -2,4 6,6 12,5 3 2 8 4 WNW 0 0,0
11.11.2019 00:00:00 -1,2 -2,2 6,7 12,5 4 2 11 6 NNE 0 0,0
10.11.2019 23:00:00 -0,7 -1,8 6,9 12,6 2 1 7 4 NNW 0 0,0
10.11.2019 22:00:00 -0,5 -1,9 7,0 12,5 0 0 6 3 N 0 0,0
10.11.2019 21:00:00 0,1 -1,7 7,0 12,5 3 2 7 4 N 0 0,0
10.11.2019 20:00:00 0,8 -1,3 7,1 12,6 3 1 8 4 NNW 0 0,0
10.11.2019 19:00:00 1,6 -1,3 7,2 12,6 2 1 8 5 NNE 0 0,0
10.11.2019 18:00:00 2,5 -0,9 7,1 12,6 0 0 9 5 N 0 0,0
10.11.2019 17:00:00 3,8 -0,8 7,1 12,6 3 1 8 4 NW 0 0,0
10.11.2019 16:00:00 6,0 -1,2 6,9 12,6 4 2 17 9 W 60 0,0
10.11.2019 15:00:00 8,5 -2,2 6,6 12,6 8 4 17 9 SSW 57 0,0
10.11.2019 14:00:00 7,5 -3,4 6,4 12,7 6 3 19 10 SSW 29 0,0
10.11.2019 13:00:00 8,2 -3,7 6,1 12,7 8 5 19 11 S 57 0,0
10.11.2019 12:00:00 8,0 -3,5 6,0 12,7 5 3 10 5 S 60 0,0
10.11.2019 11:00:00 4,8 -3,5 5,9 12,7 3 1 6 4 NE 53 0,0
10.11.2019 10:00:00 1,5 -1,7 6,0 12,7 4 2 6 4 NE 8 0,0
10.11.2019 09:00:00 -0,4 -2,0 6,1 12,7 5 3 10 6 S 1 0,0
10.11.2019 08:00:00 -1,2 -2,6 6,2 12,7 5 3 9 5 NNE 11 0,0
10.11.2019 07:00:00 -1,6 -3,0 6,3 12,8 0 0 7 4 N 0 0,0
10.11.2019 06:00:00 -1,8 -3,4 6,4 12,7 4 2 7 4 N 0 0,0
10.11.2019 05:00:00 -2,2 -3,3 6,6 12,8 3 2 7 4 N 0 0,0
10.11.2019 04:00:00 -2,3 -3,4 6,7 12,8 2 1 7 4 NW 0 0,0
10.11.2019 03:00:00 -2,5 -4,1 6,9 12,8 0 0 6 3 N 0 0,0
10.11.2019 02:00:00 -1,9 -3,9 7,1 12,8 3 2 8 4 NNW 0 0,0
10.11.2019 01:00:00 -2,5 -3,9 7,2 12,8 3 1 4 2 N 0 0,0
10.11.2019 00:00:00 -2,0 -3,4 7,4 12,8 0 0 6 3 N 0 0,0
09.11.2019 23:00:00 -1,6 -3,3 7,6 12,8 0 0 6 3 N 0 0,0
09.11.2019 22:00:00 -1,3 -3,2 7,7 12,9 2 1 7 4 NNE 0 0,0
09.11.2019 21:00:00 -0,7 -2,9 7,8 12,9 3 2 6 3 NNW 0 0,0
09.11.2019 20:00:00 0,5 -3,1 8,0 12,9 2 1 9 5 NW 0 0,0
09.11.2019 19:00:00 1,4 -3,7 8,0 12,9 4 2 12 7 N 0 0,0
09.11.2019 18:00:00 1,8 -1,8 8,1 12,9 3 2 12 6 NE 0 0,0
09.11.2019 17:00:00 2,9 -0,9 8,0 12,9 3 1 7 4 N 0 0,0
09.11.2019 16:00:00 4,9 -1,6 7,8 12,9 3 2 10 5 NNW 14 0,0
09.11.2019 15:00:00 7,2 -3,4 7,6 13,0 4 2 10 6 WSW 41 0,0
09.11.2019 14:00:00 10,0 -4,4 7,4 13,0 4 2 8 4 S 54 0,0
09.11.2019 13:00:00 7,4 -1,3 7,2 13,0 3 2 6 3 E 13 0,0
09.11.2019 12:00:00 5,5 -2,1 7,0 13,0 3 2 7 4 S 19 0,0
09.11.2019 11:00:00 5,6 0,6 7,0 13,0 3 2 6 4 SE 36 0,0
09.11.2019 10:00:00 2,0 0,4 7,0 13,0 2 1 5 3 SSW 0 0,0
09.11.2019 09:00:00 0,9 0,3 7,2 13,0 4 2 11 6 S 0 0,0
09.11.2019 08:00:00 0,4 -0,5 7,2 13,0 4 2 7 4 N 0 0,0
09.11.2019 07:00:00 -0,1 -0,7 7,3 13,0 4 2 5 3 N 0 0,0
09.11.2019 06:00:00 -0,3 -1,0 7,5 13,1 0 0 5 3 N 0 0,0
09.11.2019 05:00:00 -0,4 -1,1 7,6 13,1 3 1 5 3 SW 0 0,0
09.11.2019 04:00:00 -0,4 -1,0 7,8 13,1 3 2 6 4 NNE 0 0,0
09.11.2019 03:00:00 -1,0 -1,7 7,9 13,2 2 1 4 2 WNW 0 0,0
09.11.2019 02:00:00 -0,6 -1,4 8,1 13,2 0 0 4 2 N 0 0,0
09.11.2019 01:00:00 -0,2 -1,2 8,2 13,1 3 1 9 5 NW 0 0,0
09.11.2019 00:00:00 0,3 -0,7 8,4 13,2 4 2 8 4 NNW 0 0,0
08.11.2019 23:00:00 1,3 -0,5 8,5 13,2 2 1 16 9 WNW 0 0,0
08.11.2019 22:00:00 2,2 0,3 8,5 13,2 9 5 18 10 NNW 0 0,0
08.11.2019 21:00:00 2,8 1,5 8,5 13,2 5 3 9 5 NE 0 0,0
08.11.2019 20:00:00 3,2 1,6 8,6 13,3 0 0 4 2 N 0 0,0
08.11.2019 19:00:00 3,2 1,6 8,7 13,3 0 0 8 4 N 0 0,0
08.11.2019 18:00:00 3,4 0,8 8,7 13,3 4 2 14 8 NW 0 0,0
08.11.2019 17:00:00 4,0 1,5 8,6 13,3 7 4 13 7 WNW 0 0,0
08.11.2019 16:00:00 5,0 2,4 8,4 13,3 7 4 12 6 WNW 1 0,0
08.11.2019 15:00:00 7,5 2,8 8,1 13,3 3 1 11 6 WSW 35 0,0
08.11.2019 14:00:00 9,4 2,3 7,8 13,3 4 2 11 6 S 60 0,0
08.11.2019 13:00:00 7,5 2,8 7,6 13,4 3 1 10 5 ESE 58 0,0
08.11.2019 12:00:00 4,7 2,6 7,5 13,4 4 2 8 5 S 6 0,0
08.11.2019 11:00:00 3,4 2,2 7,4 13,4 2 1 5 3 N 28 1,0
08.11.2019 10:00:00 1,8 1,5 7,5 13,4 0 0 5 3 N 0 0,6
08.11.2019 09:00:00 1,0 0,7 7,6 13,4 0 0 3 2 N 0 0,6
08.11.2019 08:00:00 1,0 0,7 7,6 13,4 0 0 3 2 N 0 0,6
08.11.2019 07:00:00 1,2 0,9 7,7 13,5 0 0 3 2 N 0 0,4
08.11.2019 06:00:00 1,0 0,7 7,7 13,5 0 0 2 1 N 0 0,4
08.11.2019 05:00:00 1,0 0,7 7,8 13,5 0 0 4 2 N 0 0,4
08.11.2019 04:00:00 0,9 0,6 7,9 13,5 3 2 6 4 S 0 0,2
08.11.2019 03:00:00 0,9 0,6 8,0 13,5 0 0 3 1 N 0 0,0
08.11.2019 02:00:00 0,6 0,3 8,1 13,5 0 0 4 2 N 0 0,0
08.11.2019 01:00:00 0,4 0,1 8,3 13,6 2 1 5 3 WSW 0 0,0
08.11.2019 00:00:00 0,6 0,2 8,4 13,6 2 1 5 3 NW 0 0,0
07.11.2019 23:00:00 0,7 0,3 8,5 13,6 0 0 7 4 N 0 0,2
07.11.2019 22:00:00 1,0 0,3 8,7 13,6 4 2 5 3 SSW 0 0,6
07.11.2019 21:00:00 1,9 1,0 8,8 13,6 0 0 12 6 N 0 1,4
07.11.2019 20:00:00 2,7 1,8 8,8 13,6 6 3 11 6 SSW 0 2,5
07.11.2019 19:00:00 3,7 2,2 8,8 13,6 0 0 15 8 N 0 3,4
07.11.2019 18:00:00 4,8 4,1 8,8 13,6 5 3 11 6 SSW 0 0,8
07.11.2019 17:00:00 5,3 3,8 8,8 13,7 0 0 7 4 N 0 0,4
07.11.2019 16:00:00 5,6 3,4 8,6 13,6 4 2 10 5 SSW 0 0,0
07.11.2019 15:00:00 5,9 3,4 8,5 13,6 4 2 10 5 SSW 0 0,0
07.11.2019 14:00:00 6,0 3,0 8,4 13,7 4 2 8 4 SE 33 0,0
07.11.2019 13:00:00 4,0 2,5 8,4 13,7 0 0 7 4 N 0 0,4
07.11.2019 12:00:00 2,7 1,5 8,4 13,7 0 0 6 3 N 0 0,4
07.11.2019 11:00:00 2,2 1,3 8,4 13,7 0 0 6 4 N 0 0,4
07.11.2019 10:00:00 1,8 0,8 8,6 13,7 6 4 9 5 NNW 0 0,2
07.11.2019 09:00:00 1,2 0,9 8,7 13,7 3 2 9 5 SW 0 0,0
07.11.2019 08:00:00 0,4 0,1 8,8 13,7 4 2 6 4 NNE 0 0,0
07.11.2019 07:00:00 -0,1 -0,5 9,0 13,7 0 0 8 5 N 0 0,0
07.11.2019 06:00:00 -0,1 -0,5 9,1 13,7 0 0 11 6 N 0 0,0
07.11.2019 05:00:00 -0,5 -0,9 9,3 13,8 5 3 8 4 N 0 0,0
07.11.2019 04:00:00 0,0 -0,6 9,5 13,8 0 0 7 4 N 0 0,0
07.11.2019 03:00:00 0,4 -0,2 9,7 13,8 3 2 6 4 N 0 0,0
07.11.2019 02:00:00 1,1 0,4 9,8 13,8 0 0 6 3 N 0 0,0
07.11.2019 01:00:00 2,0 0,8 9,9 13,8 0 0 9 5 N 0 0,0
07.11.2019 00:00:00 3,1 2,2 10,0 13,8 5 3 8 4 N 0 0,0
06.11.2019 23:00:00 3,3 2,1 10,1 13,8 5 3 9 5 W 0 0,0
06.11.2019 22:00:00 4,0 3,0 10,2 13,8 0 0 5 3 N 0 0,0
06.11.2019 21:00:00 4,2 3,3 10,3 13,9 0 0 11 6 N 0 0,0
06.11.2019 20:00:00 4,5 3,3 10,3 13,8 5 3 8 5 SW 0 0,0
06.11.2019 19:00:00 4,8 3,6 10,4 13,9 3 2 10 5 SW 0 0,0
06.11.2019 18:00:00 5,4 3,6 10,4 13,9 3 2 13 7 SW 0 0,0
06.11.2019 17:00:00 6,3 3,5 10,3 13,9 4 2 10 5 SW 0 0,0

tt = temperature
td = dewpoint
tt -20cm = temperature -20cm
tt -100cm = temperature -100cm
ff = wind speed
fx = gusts
dd = wind direction
sd = sunshine duration
rr = precipitation

Next stations